createdAt,value
2022-09-11T00:01:47.358Z,19.53
2022-09-11T00:04:15.806Z,19.42
2022-09-11T00:06:44.262Z,19.56
2022-09-11T00:09:12.804Z,19.57
2022-09-11T00:11:43.372Z,19.59
2022-09-11T00:14:14.002Z,19.56
2022-09-11T00:16:47.608Z,19.60
2022-09-11T00:19:18.918Z,19.50
2022-09-11T00:21:47.600Z,19.45
2022-09-11T00:24:15.827Z,19.41
2022-09-11T00:26:44.981Z,19.46
2022-09-11T00:29:13.280Z,19.52
2022-09-11T00:31:41.726Z,19.62
2022-09-11T00:34:11.504Z,19.62
2022-09-11T00:36:43.184Z,19.57
2022-09-11T00:39:12.459Z,19.22
2022-09-11T00:41:44.765Z,19.37
2022-09-11T00:45:01.348Z,19.39
2022-09-11T00:47:32.075Z,19.36
2022-09-11T00:50:12.026Z,19.39
2022-09-11T00:52:43.373Z,19.08
2022-09-11T00:55:15.703Z,19.34
2022-09-11T00:57:53.694Z,19.46
2022-09-11T01:00:23.282Z,19.50
2022-09-11T01:02:54.535Z,19.54
2022-09-11T01:05:26.447Z,19.53
2022-09-11T01:07:57.169Z,19.46
2022-09-11T01:10:35.559Z,19.46
2022-09-11T01:13:11.717Z,19.44
2022-09-11T01:15:48.351Z,19.28
2022-09-11T01:18:27.943Z,19.05
2022-09-11T01:21:34.525Z,18.37
2022-09-11T01:24:26.316Z,19.10
2022-09-11T01:27:33.023Z,19.02
2022-09-11T01:30:09.548Z,19.18
2022-09-11T01:33:01.782Z,19.04
2022-09-11T01:35:42.923Z,19.21
2022-09-11T01:38:18.932Z,19.26
2022-09-11T01:40:54.617Z,19.35
2022-09-11T01:43:30.596Z,19.41
2022-09-11T01:46:02.830Z,18.95
2022-09-11T01:48:38.406Z,19.34
2022-09-11T01:51:09.804Z,19.48
2022-09-11T01:53:40.572Z,19.38
2022-09-11T01:56:15.788Z,19.44
2022-09-11T01:58:48.712Z,19.21
2022-09-11T02:01:22.630Z,19.36
2022-09-11T02:03:56.756Z,19.29
2022-09-11T02:06:34.221Z,19.26
2022-09-11T02:09:07.821Z,18.92
2022-09-11T02:11:41.964Z,19.10
2022-09-11T02:14:20.853Z,19.05
2022-09-11T02:16:52.362Z,19.00
2022-09-11T02:19:25.116Z,19.00
2022-09-11T02:21:54.358Z,18.92
2022-09-11T02:24:23.747Z,18.91
2022-09-11T02:26:59.153Z,18.73
2022-09-11T02:29:28.872Z,18.83
2022-09-11T02:32:00.477Z,18.80
2022-09-11T02:34:37.904Z,18.88
2022-09-11T02:37:38.467Z,18.75
2022-09-11T02:40:20.659Z,18.88
2022-09-11T02:43:08.664Z,18.77
2022-09-11T02:45:54.342Z,18.80
2022-09-11T02:48:45.507Z,18.73
2022-09-11T02:51:27.154Z,18.71
2022-09-11T02:54:05.542Z,18.73
2022-09-11T02:56:42.355Z,18.70
2022-09-11T02:59:19.193Z,18.73
2022-09-11T03:01:53.400Z,18.66
2022-09-11T03:04:25.829Z,18.60
2022-09-11T03:06:56.723Z,17.91
2022-09-11T03:09:25.145Z,18.88
2022-09-11T03:11:57.852Z,18.70
2022-09-11T03:14:26.160Z,18.55
2022-09-11T03:16:55.909Z,18.50
2022-09-11T03:19:25.170Z,18.44
2022-09-11T03:21:53.396Z,18.45
2022-09-11T03:24:23.367Z,18.49
2022-09-11T03:26:51.685Z,18.53
2022-09-11T03:29:20.039Z,18.47
2022-09-11T03:31:48.994Z,18.54
2022-09-11T03:34:19.793Z,18.50
2022-09-11T03:36:48.903Z,18.33
2022-09-11T03:39:17.190Z,18.57
2022-09-11T03:41:45.449Z,18.58
2022-09-11T03:44:13.716Z,18.56
2022-09-11T03:46:42.066Z,18.17
2022-09-11T03:49:10.600Z,18.69
2022-09-11T03:51:40.255Z,18.57
2022-09-11T03:54:08.550Z,18.47
2022-09-11T03:56:37.194Z,18.29
2022-09-11T03:59:05.829Z,18.47
2022-09-11T04:01:36.628Z,18.44
2022-09-11T04:04:05.299Z,18.45
2022-09-11T04:06:42.524Z,18.39
2022-09-11T04:09:10.884Z,18.08
2022-09-11T04:11:40.169Z,18.38
2022-09-11T04:14:23.504Z,18.34
2022-09-11T04:16:54.774Z,18.22
2022-09-11T04:19:23.771Z,18.43
2022-09-11T04:21:53.426Z,18.42
2022-09-11T04:24:22.897Z,18.38
2022-09-11T04:26:51.276Z,18.33
2022-09-11T04:29:24.204Z,18.25
2022-09-11T04:31:53.807Z,18.19
2022-09-11T04:34:26.203Z,18.03
2022-09-11T04:36:56.399Z,17.45
2022-09-11T04:39:25.393Z,17.82
2022-09-11T04:41:54.556Z,17.67
2022-09-11T04:44:24.148Z,17.40
2022-09-11T04:46:52.544Z,17.56
2022-09-11T04:49:21.811Z,17.56
2022-09-11T04:51:50.638Z,17.55
2022-09-11T04:54:26.017Z,17.24
2022-09-11T04:56:54.764Z,17.67
2022-09-11T04:59:24.340Z,17.74
2022-09-11T05:02:06.260Z,17.70
2022-09-11T05:04:38.746Z,17.60
2022-09-11T05:07:07.102Z,17.58
2022-09-11T05:09:37.840Z,17.58
2022-09-11T05:12:07.462Z,17.64
2022-09-11T05:14:37.984Z,17.53
2022-09-11T05:17:06.941Z,17.44
2022-09-11T05:19:40.161Z,17.48
2022-09-11T05:22:09.164Z,17.48
2022-09-11T05:24:40.817Z,17.52
2022-09-11T05:27:09.720Z,17.55
2022-09-11T05:29:39.714Z,17.66
2022-09-11T05:32:12.724Z,17.75
2022-09-11T05:34:42.533Z,17.71
2022-09-11T05:37:14.174Z,17.56
2022-09-11T05:39:47.420Z,17.62
2022-09-11T05:42:17.659Z,17.70
2022-09-11T05:44:50.619Z,17.74
2022-09-11T05:47:18.860Z,17.88
2022-09-11T05:49:50.645Z,17.92
2022-09-11T05:52:19.203Z,18.14
2022-09-11T05:54:48.901Z,18.27
2022-09-11T05:57:17.261Z,18.12
2022-09-11T05:59:45.495Z,18.70
2022-09-11T06:02:14.239Z,18.78
2022-09-11T06:04:48.317Z,19.06
2022-09-11T06:07:16.621Z,19.22
2022-09-11T06:09:52.587Z,19.18
2022-09-11T06:12:21.555Z,19.55
2022-09-11T06:14:51.044Z,19.72
2022-09-11T06:17:19.490Z,19.52
2022-09-11T06:19:48.296Z,19.37
2022-09-11T06:22:21.660Z,19.36
2022-09-11T06:24:53.641Z,20.22
2022-09-11T06:27:22.171Z,20.39
2022-09-11T06:29:51.769Z,20.41
2022-09-11T06:32:21.943Z,20.65
2022-09-11T06:34:50.353Z,20.94
2022-09-11T06:37:19.292Z,21.12
2022-09-11T06:39:49.260Z,21.51
2022-09-11T06:42:31.391Z,21.81
2022-09-11T06:45:02.567Z,22.19
2022-09-11T06:47:32.200Z,22.33
2022-09-11T06:50:00.766Z,22.58
2022-09-11T06:52:45.060Z,22.59
2022-09-11T06:55:22.720Z,22.69
2022-09-11T06:58:02.241Z,22.84
2022-09-11T07:00:32.668Z,22.95
2022-09-11T07:03:02.903Z,23.38
2022-09-11T07:05:32.088Z,23.56
2022-09-11T07:08:02.806Z,23.61
2022-09-11T07:10:34.696Z,23.70
2022-09-11T07:13:05.263Z,23.72
2022-09-11T07:15:33.878Z,24.14
2022-09-11T07:18:03.857Z,24.23
2022-09-11T07:20:32.614Z,24.39
2022-09-11T07:23:01.027Z,24.51
2022-09-11T07:25:32.196Z,24.73
2022-09-11T07:28:00.420Z,24.83
2022-09-11T07:30:32.504Z,24.76
2022-09-11T07:33:01.676Z,24.76
2022-09-11T07:35:31.046Z,24.76
2022-09-11T07:38:00.082Z,25.19
2022-09-11T07:40:29.514Z,25.47
2022-09-11T07:43:00.415Z,25.37
2022-09-11T07:45:30.660Z,25.18
2022-09-11T07:48:02.598Z,25.02
2022-09-11T07:50:32.322Z,25.09
2022-09-11T07:53:01.626Z,24.64
2022-09-11T07:55:30.156Z,24.86
2022-09-11T07:57:58.990Z,25.10
2022-09-11T08:00:27.441Z,25.32
2022-09-11T08:03:05.983Z,25.12
2022-09-11T08:05:37.262Z,24.97
2022-09-11T08:08:06.524Z,24.64
2022-09-11T08:10:40.934Z,25.48
2022-09-11T08:13:09.753Z,25.10
2022-09-11T08:15:38.927Z,24.61
2022-09-11T08:18:10.491Z,25.14
2022-09-11T08:20:38.906Z,25.66
2022-09-11T08:23:07.265Z,25.49
2022-09-11T08:25:37.242Z,25.64
2022-09-11T08:28:06.981Z,25.82
2022-09-11T08:30:38.222Z,25.88
2022-09-11T08:33:08.565Z,26.35
2022-09-11T08:35:39.158Z,26.39
2022-09-11T08:38:07.585Z,26.63
2022-09-11T08:40:39.830Z,27.13
2022-09-11T08:43:21.424Z,26.68
2022-09-11T08:45:52.311Z,25.78
2022-09-11T08:48:30.167Z,25.02
2022-09-11T08:51:00.042Z,25.09
2022-09-11T08:53:33.027Z,25.91
2022-09-11T08:56:09.104Z,26.10
2022-09-11T08:58:50.368Z,26.01
2022-09-11T09:01:30.444Z,25.08
2022-09-11T09:04:23.435Z,25.36
2022-09-11T09:07:06.835Z,25.61
2022-09-11T09:09:45.454Z,26.22
2022-09-11T09:12:24.091Z,25.79
2022-09-11T09:15:20.425Z,25.76
2022-09-11T09:17:55.495Z,25.48
2022-09-11T09:20:31.587Z,24.86
2022-09-11T09:23:05.380Z,24.51
2022-09-11T09:25:39.326Z,24.44
2022-09-11T09:28:19.236Z,23.63
2022-09-11T09:30:53.090Z,24.68
2022-09-11T09:33:36.186Z,24.59
2022-09-11T09:36:17.661Z,24.39
2022-09-11T09:38:49.195Z,23.78
2022-09-11T09:42:09.812Z,23.86
2022-09-11T09:45:03.765Z,23.63
2022-09-11T09:47:32.203Z,24.05
2022-09-11T09:50:00.829Z,24.31
2022-09-11T09:52:35.985Z,24.84
2022-09-11T09:55:12.720Z,25.44
2022-09-11T09:57:41.022Z,26.16
2022-09-11T10:00:19.815Z,26.84
2022-09-11T10:02:50.888Z,27.33
2022-09-11T10:05:25.556Z,27.76
2022-09-11T10:07:56.799Z,27.68
2022-09-11T10:10:32.071Z,27.81
2022-09-11T10:13:18.540Z,26.37
2022-09-11T10:15:50.476Z,25.72
2022-09-11T10:18:43.894Z,26.12
2022-09-11T10:21:24.064Z,26.27
2022-09-11T10:23:56.077Z,26.27
2022-09-11T10:26:30.741Z,26.63
2022-09-11T10:29:08.120Z,27.13
2022-09-11T10:31:40.101Z,27.18
2022-09-11T10:34:15.832Z,27.56
2022-09-11T10:36:55.007Z,27.48
2022-09-11T10:39:26.158Z,27.74
2022-09-11T10:42:00.018Z,28.02
2022-09-11T10:44:29.698Z,28.06
2022-09-11T10:47:07.216Z,27.99
2022-09-11T10:49:36.146Z,27.38
2022-09-11T10:52:18.781Z,27.39
2022-09-11T10:55:00.108Z,27.34
2022-09-11T10:57:35.955Z,27.55
2022-09-11T11:00:14.481Z,27.26
2022-09-11T11:02:47.061Z,27.56
2022-09-11T11:05:27.096Z,27.54
2022-09-11T11:08:58.736Z,27.17
2022-09-11T11:11:43.288Z,26.94
2022-09-11T11:14:56.743Z,27.26
2022-09-11T11:17:37.817Z,26.98
2022-09-11T11:20:28.133Z,27.41
2022-09-11T11:23:24.731Z,26.84
2022-09-11T11:26:04.501Z,26.83
2022-09-11T11:29:01.043Z,26.76
2022-09-11T11:32:03.486Z,26.68
2022-09-11T11:35:07.646Z,26.39
2022-09-11T11:37:42.659Z,26.57
2022-09-11T11:40:23.571Z,26.66
2022-09-11T11:42:58.175Z,26.72
2022-09-11T11:45:32.092Z,26.71
2022-09-11T11:48:08.448Z,26.72
2022-09-11T11:50:42.576Z,26.87
2022-09-11T11:53:19.906Z,27.01
2022-09-11T11:56:01.313Z,27.27
2022-09-11T11:58:47.031Z,27.55
2022-09-11T12:01:23.821Z,27.84
2022-09-11T12:04:02.605Z,27.93
2022-09-11T12:06:31.329Z,27.57
2022-09-11T12:08:59.929Z,27.42
2022-09-11T12:11:32.310Z,27.78
2022-09-11T12:14:01.826Z,28.13
2022-09-11T12:16:34.203Z,28.20
2022-09-11T12:19:15.696Z,28.50
2022-09-11T12:22:07.606Z,28.77
2022-09-11T12:24:58.816Z,28.91
2022-09-11T12:27:55.834Z,29.01
2022-09-11T12:30:30.760Z,29.19
2022-09-11T12:33:01.359Z,29.21
2022-09-11T12:35:41.587Z,29.02
2022-09-11T12:38:23.579Z,29.07
2022-09-11T12:40:56.397Z,29.27
2022-09-11T12:43:49.080Z,29.12
2022-09-11T12:47:07.955Z,29.00
2022-09-11T12:49:37.520Z,28.56
2022-09-11T12:52:23.695Z,28.30
2022-09-11T12:54:53.326Z,27.26
2022-09-11T12:57:29.043Z,27.79
2022-09-11T13:00:03.077Z,27.79
2022-09-11T13:02:36.785Z,27.77
2022-09-11T13:05:06.798Z,27.36
2022-09-11T13:07:44.271Z,26.57
2022-09-11T13:10:33.404Z,27.25
2022-09-11T13:13:06.620Z,27.45
2022-09-11T13:15:42.126Z,27.59
2022-09-11T13:18:31.104Z,27.81
2022-09-11T13:21:01.697Z,27.97
2022-09-11T13:23:32.700Z,28.13
2022-09-11T13:26:02.775Z,28.16
2022-09-11T13:28:32.211Z,28.23
2022-09-11T13:31:04.882Z,28.32
2022-09-11T13:33:33.816Z,28.42
2022-09-11T13:36:03.731Z,28.55
2022-09-11T13:38:36.598Z,28.46
2022-09-11T13:41:08.815Z,28.16
2022-09-11T13:43:42.416Z,28.28
2022-09-11T13:46:22.958Z,28.32
2022-09-11T13:48:56.421Z,28.29
2022-09-11T13:51:31.121Z,28.46
2022-09-11T13:54:08.991Z,28.52
2022-09-11T13:56:48.093Z,28.63
2022-09-11T13:59:38.489Z,28.53
2022-09-11T14:02:20.546Z,28.56
2022-09-11T14:04:52.232Z,28.53
2022-09-11T14:07:24.683Z,28.43
2022-09-11T14:10:05.932Z,28.21
2022-09-11T14:12:36.312Z,28.18
2022-09-11T14:15:17.377Z,28.11
2022-09-11T14:17:45.711Z,28.20
2022-09-11T14:20:20.118Z,28.29
2022-09-11T14:22:48.720Z,28.32
2022-09-11T14:25:24.521Z,28.36
2022-09-11T14:27:53.171Z,28.24
2022-09-11T14:30:37.135Z,28.31
2022-09-11T14:33:19.331Z,28.38
2022-09-11T14:35:48.921Z,28.36
2022-09-11T14:38:20.627Z,28.38
2022-09-11T14:40:59.154Z,28.21
2022-09-11T14:43:32.658Z,28.29
2022-09-11T14:46:02.851Z,28.27
2022-09-11T14:48:35.315Z,28.28
2022-09-11T14:51:12.738Z,28.33
2022-09-11T14:53:43.421Z,28.34
2022-09-11T14:56:13.306Z,28.38
2022-09-11T14:58:41.550Z,28.30
2022-09-11T15:01:15.473Z,28.37
2022-09-11T15:03:44.105Z,28.38
2022-09-11T15:06:19.127Z,28.27
2022-09-11T15:08:47.610Z,28.42
2022-09-11T15:11:17.178Z,28.33
2022-09-11T15:14:04.331Z,28.29
2022-09-11T15:16:34.561Z,28.29
2022-09-11T15:19:02.759Z,28.31
2022-09-11T15:21:35.320Z,28.35
2022-09-11T15:24:06.972Z,28.28
2022-09-11T15:26:37.275Z,28.31
2022-09-11T15:29:09.913Z,27.68
2022-09-11T15:31:38.200Z,28.21
2022-09-11T15:34:07.390Z,28.01
2022-09-11T15:36:38.107Z,27.90
2022-09-11T15:39:07.006Z,27.73
2022-09-11T15:41:36.612Z,27.29
2022-09-11T15:44:11.468Z,27.25
2022-09-11T15:46:40.255Z,27.06
2022-09-11T15:49:08.636Z,26.73
2022-09-11T15:51:37.051Z,26.76
2022-09-11T15:54:05.815Z,26.64
2022-09-11T15:56:36.031Z,26.11
2022-09-11T15:59:05.023Z,26.38
2022-09-11T16:01:37.423Z,26.54
2022-09-11T16:04:08.637Z,26.53
2022-09-11T16:06:39.648Z,26.42
2022-09-11T16:09:10.655Z,26.20
2022-09-11T16:11:40.911Z,25.91
2022-09-11T16:14:09.643Z,26.24
2022-09-11T16:16:37.968Z,26.41
2022-09-11T16:19:06.249Z,26.52
2022-09-11T16:21:34.462Z,26.61
2022-09-11T16:24:06.828Z,26.71
2022-09-11T16:26:35.210Z,26.71
2022-09-11T16:29:08.600Z,26.82
2022-09-11T16:31:37.217Z,26.87
2022-09-11T16:34:06.686Z,26.92
2022-09-11T16:36:38.466Z,26.82
2022-09-11T16:39:08.923Z,26.82
2022-09-11T16:41:38.095Z,26.85
2022-09-11T16:44:10.968Z,26.90
2022-09-11T16:46:40.572Z,26.73
2022-09-11T16:49:09.560Z,26.62
2022-09-11T16:51:37.792Z,26.67
2022-09-11T16:54:06.083Z,26.42
2022-09-11T16:56:34.447Z,26.59
2022-09-11T16:59:02.677Z,26.59
2022-09-11T17:01:32.264Z,26.65
2022-09-11T17:04:00.601Z,26.62
2022-09-11T17:06:29.952Z,26.57
2022-09-11T17:09:00.336Z,26.57
2022-09-11T17:11:31.499Z,26.49
2022-09-11T17:14:02.676Z,26.53
2022-09-11T17:16:35.688Z,26.49
2022-09-11T17:19:03.954Z,26.42
2022-09-11T17:21:35.847Z,26.42
2022-09-11T17:24:07.422Z,26.26
2022-09-11T17:26:36.091Z,26.19
2022-09-11T17:29:05.784Z,26.23
2022-09-11T17:31:35.398Z,26.26
2022-09-11T17:34:03.743Z,26.18
2022-09-11T17:36:32.022Z,25.79
2022-09-11T17:39:00.956Z,26.12
2022-09-11T17:41:29.638Z,26.05
2022-09-11T17:43:58.288Z,25.58
2022-09-11T17:46:26.627Z,25.95
2022-09-11T17:48:56.359Z,25.94
2022-09-11T17:51:27.908Z,25.91
2022-09-11T17:53:58.657Z,25.86
2022-09-11T17:56:31.572Z,25.78
2022-09-11T17:59:00.951Z,25.73
2022-09-11T18:01:31.647Z,25.68
2022-09-11T18:04:01.494Z,25.62
2022-09-11T18:06:34.497Z,25.65
2022-09-11T18:09:11.824Z,25.36
2022-09-11T18:11:40.617Z,25.53
2022-09-11T18:14:09.150Z,25.57
2022-09-11T18:16:37.669Z,25.43
2022-09-11T18:19:07.734Z,25.32
2022-09-11T18:21:38.351Z,25.28
2022-09-11T18:24:09.863Z,25.31
2022-09-11T18:26:40.284Z,25.21
2022-09-11T18:29:12.231Z,25.30
2022-09-11T18:31:43.148Z,24.69
2022-09-11T18:34:15.846Z,25.04
2022-09-11T18:36:45.432Z,24.81
2022-09-11T18:39:16.768Z,24.64
2022-09-11T18:41:46.343Z,24.56
2022-09-11T18:44:19.677Z,24.40
2022-09-11T18:46:48.902Z,24.50
2022-09-11T18:49:18.638Z,24.56
2022-09-11T18:51:46.874Z,24.50
2022-09-11T18:54:16.588Z,24.45
2022-09-11T18:56:45.823Z,24.37
2022-09-11T18:59:15.320Z,24.35
2022-09-11T19:01:43.751Z,24.22
2022-09-11T19:04:14.318Z,24.09
2022-09-11T19:06:44.731Z,24.15
2022-09-11T19:09:14.088Z,24.20
2022-09-11T19:11:42.991Z,24.16
2022-09-11T19:14:13.409Z,23.88
2022-09-11T19:16:41.886Z,23.79
2022-09-11T19:19:10.805Z,23.78
2022-09-11T19:21:39.109Z,23.73
2022-09-11T19:24:08.994Z,23.76
2022-09-11T19:26:40.031Z,23.81
2022-09-11T19:29:09.578Z,23.70
2022-09-11T19:31:39.426Z,23.55
2022-09-11T19:34:09.988Z,23.37
2022-09-11T19:36:38.614Z,23.14
2022-09-11T19:39:08.733Z,23.03
2022-09-11T19:41:39.505Z,22.86
2022-09-11T19:44:12.090Z,22.83
2022-09-11T19:46:42.924Z,22.81
2022-09-11T19:49:12.133Z,22.70
2022-09-11T19:51:45.023Z,22.68
2022-09-11T19:54:15.683Z,22.54
2022-09-11T19:56:45.120Z,22.53
2022-09-11T19:59:14.571Z,22.50
2022-09-11T20:01:43.529Z,22.23
2022-09-11T20:04:13.635Z,22.23
2022-09-11T20:06:41.970Z,22.32
2022-09-11T20:09:30.531Z,22.48
2022-09-11T20:12:01.431Z,22.61
2022-09-11T20:14:31.006Z,22.61
2022-09-11T20:17:00.986Z,22.77
2022-09-11T20:19:29.548Z,22.82
2022-09-11T20:21:57.809Z,22.87
2022-09-11T20:24:26.277Z,22.86
2022-09-11T20:26:54.986Z,22.84
2022-09-11T20:29:25.600Z,22.82
2022-09-11T20:31:55.179Z,22.84
2022-09-11T20:34:27.829Z,22.88
2022-09-11T20:36:57.019Z,22.72
2022-09-11T20:39:25.318Z,22.82
2022-09-11T20:41:53.534Z,22.77
2022-09-11T20:44:21.775Z,22.44
2022-09-11T20:46:51.473Z,22.54
2022-09-11T20:49:19.796Z,22.62
2022-09-11T20:51:48.015Z,22.48
2022-09-11T20:54:16.510Z,22.00
2022-09-11T20:56:46.211Z,21.73
2022-09-11T20:59:14.751Z,21.66
2022-09-11T21:01:43.183Z,21.75
2022-09-11T21:04:13.964Z,21.92
2022-09-11T21:06:42.443Z,22.06
2022-09-11T21:09:13.375Z,22.00
2022-09-11T21:11:42.520Z,21.97
2022-09-11T21:14:11.943Z,22.09
2022-09-11T21:16:40.287Z,22.02
2022-09-11T21:19:09.992Z,21.79
2022-09-11T21:21:40.114Z,22.00
2022-09-11T21:24:12.464Z,22.06
2022-09-11T21:26:40.837Z,21.13
2022-09-11T21:29:12.239Z,21.63
2022-09-11T21:31:40.527Z,21.75
2022-09-11T21:34:08.971Z,21.61
2022-09-11T21:36:37.910Z,21.77
2022-09-11T21:39:07.646Z,21.66
2022-09-11T21:41:35.944Z,21.72
2022-09-11T21:44:04.392Z,21.78
2022-09-11T21:46:32.738Z,21.76
2022-09-11T21:49:01.662Z,21.88
2022-09-11T21:51:30.011Z,21.84
2022-09-11T21:54:01.807Z,21.83
2022-09-11T21:56:33.917Z,21.74
2022-09-11T21:59:02.536Z,21.71
2022-09-11T22:01:32.061Z,21.70
2022-09-11T22:04:01.265Z,21.65
2022-09-11T22:06:30.734Z,21.45
2022-09-11T22:08:59.696Z,21.62
2022-09-11T22:11:28.535Z,21.52
2022-09-11T22:13:58.133Z,21.46
2022-09-11T22:16:26.510Z,21.36
2022-09-11T22:18:56.889Z,21.27
2022-09-11T22:21:25.215Z,21.19
2022-09-11T22:23:53.430Z,21.14
2022-09-11T22:26:23.827Z,21.10
2022-09-11T22:28:52.994Z,20.98
2022-09-11T22:31:26.046Z,21.01
2022-09-11T22:33:55.299Z,21.01
2022-09-11T22:36:27.280Z,20.89
2022-09-11T22:38:56.098Z,20.88
2022-09-11T22:41:24.611Z,20.78
2022-09-11T22:43:53.511Z,20.94
2022-09-11T22:46:23.885Z,20.87
2022-09-11T22:48:52.122Z,20.99
2022-09-11T22:51:20.440Z,20.95
2022-09-11T22:53:48.718Z,20.90
2022-09-11T22:56:17.216Z,20.96
2022-09-11T22:58:45.664Z,20.94
2022-09-11T23:01:21.084Z,20.99
2022-09-11T23:03:52.058Z,20.85
2022-09-11T23:06:38.728Z,20.82
2022-09-11T23:09:09.163Z,20.67
2022-09-11T23:11:37.536Z,20.50
2022-09-11T23:14:09.321Z,20.63
2022-09-11T23:16:41.786Z,20.53
2022-09-11T23:19:14.928Z,20.50
2022-09-11T23:21:43.626Z,20.20
2022-09-11T23:24:14.222Z,19.92
2022-09-11T23:26:43.336Z,19.92
2022-09-11T23:29:12.288Z,19.89
2022-09-11T23:31:41.364Z,19.98
2022-09-11T23:34:14.871Z,20.12
2022-09-11T23:36:44.136Z,20.12
2022-09-11T23:39:12.635Z,20.22
2022-09-11T23:41:41.001Z,20.11
2022-09-11T23:44:10.091Z,20.12
2022-09-11T23:46:38.623Z,20.19
2022-09-11T23:49:07.408Z,20.24
2022-09-11T23:51:36.964Z,20.25
2022-09-11T23:54:05.398Z,20.19
2022-09-11T23:56:33.703Z,20.13
2022-09-11T23:59:01.953Z,20.04
